Terminal Aerodrome Forecast
Issued by NWS Corpus Christi, TX

Home | Current Version | Previous Version | Text Only | Print | Product List | Glossary On
Versions: 1 2 3 4 5 6 7 8 9 10 11 12 13 14
172
FTUS44 KCRP 172338
TAFVCT
TAF
KVCT 172338Z 1800/1824 VRB03KT P6SM OVC008
     FM180400 VRB03KT 6SM BR OVC006
     FM180800 01004KT 3SM BR OVC004
     FM181500 04006KT 5SM BR VCSH OVC006=

USA.gov is the U.S. government's official web portal to all federal, state and local government web resources and services.